createdAt,value
2022-12-03T00:00:12.519Z,2.1
2022-12-03T00:02:12.331Z,2
2022-12-03T00:04:15.910Z,2.1
2022-12-03T00:06:22.729Z,2
2022-12-03T00:08:26.497Z,2.1
2022-12-03T00:10:30.264Z,2.1
2022-12-03T00:12:34.095Z,2.1
2022-12-03T00:14:44.160Z,2
2022-12-03T00:16:41.720Z,2.1
2022-12-03T00:18:45.487Z,2.1
2022-12-03T00:20:52.299Z,2.1
2022-12-03T00:22:56.111Z,2.1
2022-12-03T00:24:59.973Z,2.1
2022-12-03T00:26:03.366Z,2.1
2022-12-03T00:28:07.144Z,2.1
2022-12-03T00:32:14.821Z,2.1
2022-12-03T00:36:25.499Z,2.1
2022-12-03T00:38:29.284Z,2
2022-12-03T00:40:33.039Z,2.1
2022-12-03T00:42:36.951Z,2.1
2022-12-03T00:46:44.618Z,2.1
2022-12-03T00:48:51.498Z,2
2022-12-03T00:50:55.250Z,2.1
2022-12-03T00:52:59.054Z,2.1
2022-12-03T00:55:02.835Z,2.1
2022-12-03T00:57:06.590Z,2.1
2022-12-03T00:59:10.361Z,2.1
2022-12-03T01:01:14.183Z,2.1
2022-12-03T01:03:20.937Z,2.1
2022-12-03T01:05:24.748Z,2.1
2022-12-03T01:09:32.267Z,2.1
2022-12-03T01:15:43.705Z,2.1
2022-12-03T01:17:50.390Z,2.1
2022-12-03T01:19:54.289Z,2.1
2022-12-03T01:21:58.066Z,2.1
2022-12-03T01:23:01.448Z,2.1
2022-12-03T01:25:05.221Z,2.2
2022-12-03T01:27:08.994Z,2.1
2022-12-03T01:29:12.792Z,2.2
2022-12-03T01:31:19.788Z,2.1
2022-12-03T01:33:23.495Z,2.1
2022-12-03T01:39:34.813Z,2.1
2022-12-03T01:43:42.377Z,2.2
2022-12-03T01:45:49.271Z,2.2
2022-12-03T01:47:53.042Z,2.1
2022-12-03T01:49:56.952Z,2.2
2022-12-03T01:54:04.507Z,2.2
2022-12-03T01:56:08.251Z,2.2
2022-12-03T01:58:12.042Z,2.2
2022-12-03T02:00:18.900Z,2.2
2022-12-03T02:02:22.743Z,2.2
2022-12-03T02:04:26.662Z,2.2
2022-12-03T02:06:30.284Z,2.2
2022-12-03T02:08:34.066Z,2.2
2022-12-03T02:10:37.919Z,2.2
2022-12-03T02:12:41.621Z,2.2
2022-12-03T02:16:52.318Z,2.2
2022-12-03T02:22:03.320Z,2.3
2022-12-03T02:24:07.093Z,2.3
2022-12-03T02:28:17.644Z,2.3
2022-12-03T02:30:21.489Z,2.3
2022-12-03T02:32:25.291Z,2.3
2022-12-03T02:34:29.187Z,2.2
2022-12-03T02:36:32.952Z,2.3
2022-12-03T02:38:36.724Z,2.3
2022-12-03T02:40:40.539Z,2.3
2022-12-03T02:42:47.335Z,2.3
2022-12-03T02:44:51.606Z,2.3
2022-12-03T02:46:54.942Z,2.3
2022-12-03T02:48:58.676Z,2.3
2022-12-03T02:51:02.453Z,2.3
2022-12-03T02:53:06.232Z,2.3
2022-12-03T02:55:10.004Z,2.3
2022-12-03T02:57:16.826Z,2.3
2022-12-03T03:01:24.564Z,2.3
2022-12-03T03:11:46.455Z,2.3
2022-12-03T03:15:54.096Z,2.3
2022-12-03T03:18:18.442Z,2.3
2022-12-03T03:20:22.254Z,2.3
2022-12-03T03:22:26.041Z,2.3
2022-12-03T03:26:36.631Z,2.3
2022-12-03T03:28:40.397Z,2.3
2022-12-03T03:30:44.222Z,2.3
2022-12-03T03:32:48.023Z,2.3
2022-12-03T03:34:52.194Z,2.3
2022-12-03T03:36:55.573Z,2.3
2022-12-03T03:39:02.416Z,2.3
2022-12-03T03:41:06.325Z,2.3
2022-12-03T03:43:10.098Z,2.3
2022-12-03T03:45:13.920Z,2.3
2022-12-03T03:47:17.682Z,2.3
2022-12-03T03:49:21.474Z,2.3
2022-12-03T03:51:25.244Z,2.3
2022-12-03T03:53:32.057Z,2.3
2022-12-03T03:55:35.852Z,2.3
2022-12-03T03:57:39.658Z,2.3
2022-12-03T03:59:43.457Z,2.3
2022-12-03T04:01:47.310Z,2.3
2022-12-03T04:03:51.120Z,2.2
2022-12-03T04:05:54.932Z,2.2
2022-12-03T04:08:01.688Z,2.2
2022-12-03T04:10:05.420Z,2.2
2022-12-03T04:12:09.217Z,2.2
2022-12-03T04:13:12.599Z,2.2
2022-12-03T04:15:16.411Z,2.2
2022-12-03T04:17:20.199Z,2.2
2022-12-03T04:19:24.061Z,2.2
2022-12-03T04:21:31.075Z,2.2
2022-12-03T04:23:34.690Z,2.2
2022-12-03T04:25:38.570Z,2.2
2022-12-03T04:27:42.357Z,2.2
2022-12-03T04:33:53.832Z,2.2
2022-12-03T04:36:00.695Z,2.2
2022-12-03T04:38:04.414Z,2.2
2022-12-03T04:40:08.315Z,2.2
2022-12-03T04:50:30.262Z,2.1
2022-12-03T04:52:34.033Z,2.1
2022-12-03T04:54:37.783Z,2.1
2022-12-03T04:58:45.469Z,2.1
2022-12-03T05:02:53.202Z,2.1
2022-12-03T05:04:59.840Z,2.1
2022-12-03T05:07:03.624Z,2.1
2022-12-03T05:09:07.513Z,2.1
2022-12-03T05:10:10.903Z,2.1
2022-12-03T05:12:14.688Z,2.1
2022-12-03T05:14:18.476Z,2.1
2022-12-03T05:16:22.304Z,2.2
2022-12-03T05:18:29.051Z,2.1
2022-12-03T05:20:32.846Z,2.1
2022-12-03T05:22:36.587Z,2.1
2022-12-03T05:24:40.371Z,2.1
2022-12-03T05:26:44.137Z,2.1
2022-12-03T05:30:51.793Z,2.1
2022-12-03T05:32:58.527Z,2
2022-12-03T05:35:02.316Z,2
2022-12-03T05:37:06.064Z,2
2022-12-03T05:39:09.873Z,2
2022-12-03T05:41:13.767Z,2
2022-12-03T05:43:17.524Z,2
2022-12-03T05:45:21.291Z,2
2022-12-03T05:47:28.096Z,1.9
2022-12-03T05:51:35.784Z,1.9
2022-12-03T05:53:39.558Z,1.9
2022-12-03T05:55:44.885Z,1.9
2022-12-03T05:57:48.618Z,1.9
2022-12-03T05:59:52.410Z,1.9
2022-12-03T06:01:59.504Z,1.9
2022-12-03T06:04:03.155Z,1.9
2022-12-03T06:06:06.870Z,1.8
2022-12-03T06:09:14.036Z,1.8
2022-12-03T06:19:36.041Z,1.8
2022-12-03T06:23:43.532Z,1.8
2022-12-03T06:34:05.491Z,1.7
2022-12-03T06:38:13.108Z,1.7
2022-12-03T06:44:27.550Z,1.7
2022-12-03T06:48:35.033Z,1.7
2022-12-03T06:50:38.896Z,1.7
2022-12-03T06:52:42.651Z,1.7
2022-12-03T06:54:46.515Z,1.7
2022-12-03T06:56:50.291Z,1.7
2022-12-03T06:58:57.186Z,1.7
2022-12-03T07:01:01.067Z,1.7
2022-12-03T07:03:05.015Z,1.7
2022-12-03T07:05:29.220Z,1.7
2022-12-03T07:07:33.037Z,1.7
2022-12-03T07:09:36.800Z,1.7
2022-12-03T07:11:43.581Z,1.7
2022-12-03T07:13:47.315Z,1.7
2022-12-03T07:15:51.149Z,1.7
2022-12-03T07:17:54.864Z,1.7
2022-12-03T07:19:58.623Z,1.7
2022-12-03T07:22:02.415Z,1.7
2022-12-03T07:24:06.263Z,1.7
2022-12-03T07:26:13.095Z,1.7
2022-12-03T07:28:16.838Z,1.7
2022-12-03T07:30:20.607Z,1.7
2022-12-03T07:32:24.493Z,1.7
2022-12-03T07:34:28.228Z,1.7
2022-12-03T07:38:35.763Z,1.7
2022-12-03T07:40:42.534Z,1.6
2022-12-03T07:42:46.287Z,1.6
2022-12-03T07:46:54.017Z,1.6
2022-12-03T07:48:57.705Z,1.7
2022-12-03T07:53:05.406Z,1.6
2022-12-03T07:55:12.405Z,1.7
2022-12-03T07:57:16.203Z,1.7
2022-12-03T08:00:23.465Z,1.6
2022-12-03T08:02:27.310Z,1.6
2022-12-03T08:04:31.054Z,1.6
2022-12-03T08:06:34.818Z,1.7
2022-12-03T08:10:45.469Z,1.6
2022-12-03T08:14:53.320Z,1.6
2022-12-03T08:21:04.418Z,1.7
2022-12-03T08:23:11.246Z,1.6
2022-12-03T08:25:15.134Z,1.6
2022-12-03T08:27:18.875Z,1.6
2022-12-03T08:29:22.697Z,1.5
2022-12-03T08:31:32.644Z,1.5
2022-12-03T08:33:30.109Z,1.5
2022-12-03T08:35:33.878Z,1.5
2022-12-03T08:37:40.657Z,1.4
2022-12-03T08:39:44.413Z,1.4
2022-12-03T08:54:14.319Z,1.5
2022-12-03T08:56:18.186Z,1.5
2022-12-03T08:57:21.685Z,1.5
2022-12-03T08:59:25.435Z,1.5
2022-12-03T09:07:43.821Z,1.6
2022-12-03T09:09:47.618Z,1.6
2022-12-03T09:11:51.428Z,1.6
2022-12-03T09:13:55.143Z,1.7
2022-12-03T09:18:02.628Z,1.7
2022-12-03T09:20:09.529Z,1.6
2022-12-03T09:22:13.389Z,1.6
2022-12-03T09:28:24.807Z,1.5
2022-12-03T09:30:28.533Z,1.4
2022-12-03T09:32:32.371Z,1.4
2022-12-03T09:34:39.109Z,1.4
2022-12-03T09:38:48.255Z,1.4
2022-12-03T09:40:50.373Z,1.4
2022-12-03T09:42:54.102Z,1.4
2022-12-03T09:44:57.897Z,1.4
2022-12-03T09:49:13.979Z,1.5
2022-12-03T09:51:12.170Z,1.4
2022-12-03T09:53:15.922Z,1.3
2022-12-03T09:54:19.326Z,1.3
2022-12-03T09:56:23.067Z,1.3
2022-12-03T09:58:31.765Z,1.3
2022-12-03T10:00:30.573Z,1.3
2022-12-03T10:02:37.370Z,1.3
2022-12-03T10:04:41.271Z,1.3
2022-12-03T10:06:46.221Z,1.3
2022-12-03T10:08:48.956Z,1.3
2022-12-03T10:10:52.827Z,1.2
2022-12-03T10:12:56.638Z,1.2
2022-12-03T10:15:00.356Z,1.1
2022-12-03T10:19:10.847Z,1.1
2022-12-03T10:21:14.616Z,1.1
2022-12-03T10:23:18.473Z,1.1
2022-12-03T10:25:22.336Z,1.1
2022-12-03T10:27:26.174Z,1.1
2022-12-03T10:29:33.882Z,1.1
2022-12-03T10:31:37.032Z,1.1
2022-12-03T10:33:40.844Z,1.2
2022-12-03T10:35:44.605Z,1.1
2022-12-03T10:37:48.331Z,1.1
2022-12-03T10:39:55.720Z,1.2
2022-12-03T10:41:55.817Z,1.2
2022-12-03T10:43:59.586Z,1.2
2022-12-03T10:46:06.373Z,1.2
2022-12-03T10:48:10.072Z,1.2
2022-12-03T10:50:13.836Z,1.3
2022-12-03T10:52:32.121Z,1.2
2022-12-03T10:54:35.849Z,1.2
2022-12-03T10:56:39.589Z,1.2
2022-12-03T10:58:46.461Z,1.2
2022-12-03T11:00:50.337Z,1.2
2022-12-03T11:02:57.033Z,1.2
2022-12-03T11:04:58.037Z,1.2
2022-12-03T11:07:01.866Z,1.2
2022-12-03T11:09:09.028Z,1.2
2022-12-03T11:11:09.555Z,1.3
2022-12-03T11:13:16.595Z,1.2
2022-12-03T11:15:20.200Z,1.2
2022-12-03T11:17:24.033Z,1.2
2022-12-03T11:19:27.759Z,1.2
2022-12-03T11:21:31.626Z,1.2
2022-12-03T11:23:35.597Z,1.2
2022-12-03T11:25:39.265Z,1.2
2022-12-03T11:27:46.085Z,1.2
2022-12-03T11:29:49.842Z,1.1
2022-12-03T11:31:53.615Z,1.2
2022-12-03T11:33:57.450Z,1.2
2022-12-03T11:36:01.190Z,1.1
2022-12-03T11:38:05.022Z,1.2
2022-12-03T11:40:08.789Z,1.2
2022-12-03T11:42:16.400Z,1.2
2022-12-03T11:44:20.135Z,1.1
2022-12-03T11:46:24.111Z,1.1
2022-12-03T11:47:27.431Z,1.1
2022-12-03T11:49:31.380Z,1.1
2022-12-03T11:51:36.620Z,1.1
2022-12-03T11:53:40.336Z,1.1
2022-12-03T11:55:47.302Z,1.1
2022-12-03T12:01:58.867Z,1.1
2022-12-03T12:06:06.494Z,1.1
2022-12-03T12:10:17.434Z,1.1
2022-12-03T12:12:21.134Z,1
2022-12-03T12:20:36.498Z,0.9
2022-12-03T12:22:40.326Z,0.9
2022-12-03T12:24:47.218Z,0.8
2022-12-03T12:35:06.455Z,0.8
2022-12-03T12:39:17.280Z,0.7
2022-12-03T12:41:21.001Z,0.7
2022-12-03T12:44:28.302Z,0.7
2022-12-03T12:46:47.792Z,0.8
2022-12-03T12:48:36.003Z,0.8
2022-12-03T12:52:46.696Z,0.8
2022-12-03T12:54:50.547Z,0.8
2022-12-03T12:56:54.373Z,0.8
2022-12-03T12:58:58.202Z,0.8
2022-12-03T13:03:05.794Z,0.8
2022-12-03T13:07:16.493Z,0.9
2022-12-03T13:09:20.320Z,0.9
2022-12-03T13:11:24.182Z,0.9
2022-12-03T13:15:31.700Z,0.9
2022-12-03T13:17:35.423Z,0.9
2022-12-03T13:19:47.370Z,0.9
2022-12-03T13:21:46.102Z,0.9
2022-12-03T13:23:49.949Z,1
2022-12-03T13:26:04.727Z,1
2022-12-03T13:27:57.545Z,1
2022-12-03T13:30:01.373Z,1
2022-12-03T13:32:05.279Z,0.9
2022-12-03T13:34:09.024Z,0.9
2022-12-03T13:36:15.911Z,0.9
2022-12-03T13:38:19.746Z,0.9
2022-12-03T13:40:23.572Z,1
2022-12-03T13:41:27.057Z,0.9
2022-12-03T13:45:34.781Z,0.9
2022-12-03T13:47:38.576Z,0.9
2022-12-03T13:49:45.424Z,1
2022-12-03T13:51:49.270Z,1
2022-12-03T13:53:53.097Z,1
2022-12-03T13:55:56.945Z,1
2022-12-03T13:58:00.687Z,1
2022-12-03T14:00:04.543Z,1
2022-12-03T14:02:08.421Z,1
2022-12-03T14:04:15.342Z,0.9
2022-12-03T14:08:23.030Z,0.9
2022-12-03T14:10:26.773Z,0.9
2022-12-03T14:12:30.609Z,0.9
2022-12-03T14:14:34.451Z,1
2022-12-03T14:16:38.348Z,0.9
2022-12-03T14:18:45.267Z,0.9
2022-12-03T14:20:49.091Z,0.8
2022-12-03T14:22:58.878Z,0.8
2022-12-03T14:24:56.674Z,0.8
2022-12-03T14:27:00.490Z,0.8
2022-12-03T14:35:18.964Z,0.7
2022-12-03T14:37:22.795Z,0.6
2022-12-03T14:39:47.336Z,0.7
2022-12-03T14:43:55.010Z,0.6
2022-12-03T14:48:05.806Z,0.5
2022-12-03T14:50:09.617Z,0.5
2022-12-03T14:52:13.467Z,0.5
2022-12-03T14:54:17.310Z,0.5
2022-12-03T14:56:21.128Z,0.5
2022-12-03T14:58:24.960Z,0.5
2022-12-03T15:00:31.828Z,0.5
2022-12-03T15:02:35.629Z,0.5
2022-12-03T15:04:39.281Z,0.5
2022-12-03T15:08:46.802Z,0.5
2022-12-03T15:10:50.665Z,0.5
2022-12-03T15:19:08.923Z,0.5
2022-12-03T15:21:12.730Z,0.4
2022-12-03T15:23:17.598Z,0.5
2022-12-03T15:25:21.402Z,0.4
2022-12-03T15:29:32.055Z,0.4
2022-12-03T15:31:35.805Z,0.5
2022-12-03T15:33:39.557Z,0.5
2022-12-03T15:34:43.032Z,0.4
2022-12-03T15:36:46.860Z,0.4
2022-12-03T15:38:50.673Z,0.4
2022-12-03T15:40:54.473Z,0.4
2022-12-03T15:43:01.419Z,0.4
2022-12-03T15:45:05.301Z,0.4
2022-12-03T15:47:09.043Z,0.4
2022-12-03T15:49:12.861Z,0.4
2022-12-03T15:51:16.647Z,0.4
2022-12-03T15:53:20.478Z,0.4
2022-12-03T15:55:24.176Z,0.4
2022-12-03T15:57:30.921Z,0.4
2022-12-03T15:59:34.741Z,0.4
2022-12-03T16:01:38.587Z,0.4
2022-12-03T16:03:42.265Z,0.3
2022-12-03T16:05:46.137Z,0.3
2022-12-03T16:07:49.876Z,0.4
2022-12-03T16:09:53.737Z,0.4
2022-12-03T16:12:00.353Z,0.3
2022-12-03T16:14:04.080Z,0.3
2022-12-03T16:16:08.039Z,0.3
2022-12-03T16:18:11.729Z,0.3
2022-12-03T16:20:15.532Z,0.4
2022-12-03T16:22:19.265Z,0.3
2022-12-03T16:24:23.071Z,0.3
2022-12-03T16:26:29.995Z,0.3
2022-12-03T16:28:33.738Z,0.3
2022-12-03T16:30:37.547Z,0.3
2022-12-03T16:31:40.966Z,0.3
2022-12-03T16:33:44.681Z,0.3
2022-12-03T16:35:49.449Z,0.3
2022-12-03T16:37:53.279Z,0.3
2022-12-03T16:40:00.200Z,0.3
2022-12-03T16:42:04.036Z,0.3
2022-12-03T16:44:07.763Z,0.4
2022-12-03T16:46:11.692Z,0.3
2022-12-03T16:48:15.404Z,0.3
2022-12-03T16:50:25.912Z,0.3
2022-12-03T16:52:23.021Z,0.3
2022-12-03T16:54:29.964Z,0.3
2022-12-03T16:56:33.943Z,0.3
2022-12-03T16:58:37.629Z,0.2
2022-12-03T17:00:41.444Z,0.2
2022-12-03T17:02:45.306Z,0.3
2022-12-03T17:04:49.083Z,0.3
2022-12-03T17:06:53.033Z,0.3
2022-12-03T17:15:11.294Z,0.3
2022-12-03T17:17:15.173Z,0.3
2022-12-03T17:19:19.367Z,0.3
2022-12-03T17:21:22.735Z,0.3
2022-12-03T17:25:33.512Z,0.3
2022-12-03T17:27:42.034Z,0.3
2022-12-03T17:28:40.776Z,0.3
2022-12-03T17:30:44.656Z,0.2
2022-12-03T17:32:48.412Z,0.3
2022-12-03T17:34:52.215Z,0.2
2022-12-03T17:36:59.221Z,0.2
2022-12-03T17:39:02.990Z,0.2
2022-12-03T17:43:10.586Z,0.2
2022-12-03T17:45:14.409Z,0.2
2022-12-03T17:47:18.224Z,0.2
2022-12-03T17:55:44.326Z,0.2
2022-12-03T17:57:42.025Z,0.2
2022-12-03T17:59:45.759Z,0.2
2022-12-03T18:01:49.663Z,0.2
2022-12-03T18:03:53.426Z,0.2
2022-12-03T18:06:00.313Z,0.2
2022-12-03T18:08:04.254Z,0.2
2022-12-03T18:10:07.895Z,0.1
2022-12-03T18:12:11.710Z,0.1
2022-12-03T18:14:15.521Z,0.2
2022-12-03T18:16:19.387Z,0.2
2022-12-03T18:18:23.142Z,0.2
2022-12-03T18:20:30.033Z,0.2
2022-12-03T18:22:33.836Z,0.2
2022-12-03T18:24:37.637Z,0.2
2022-12-03T18:31:09.532Z,0.2
2022-12-03T18:33:16.413Z,0.1
2022-12-03T18:35:20.235Z,0.2
2022-12-03T18:37:23.997Z,0.1
2022-12-03T18:39:27.794Z,0.2
2022-12-03T18:41:31.592Z,0.1
2022-12-03T18:43:35.403Z,0.1
2022-12-03T18:45:39.193Z,0.1
2022-12-03T18:47:46.228Z,0.1
2022-12-03T18:49:49.902Z,0.1
2022-12-03T19:00:13.187Z,0.1
2022-12-03T19:04:19.609Z,0.1
2022-12-03T19:06:23.280Z,0.1
2022-12-03T19:08:27.054Z,0.1
2022-12-03T19:10:30.860Z,0.1
2022-12-03T19:12:34.618Z,0.1
2022-12-03T19:14:38.390Z,0.1
2022-12-03T19:16:45.437Z,0.1
2022-12-03T19:18:49.133Z,0.1
2022-12-03T19:20:52.928Z,0.1
2022-12-03T19:21:56.402Z,0.1
2022-12-03T19:24:23.156Z,0.1
2022-12-03T19:26:03.999Z,0
2022-12-03T19:28:07.825Z,0.1
2022-12-03T19:30:14.808Z,0.1
2022-12-03T19:38:29.992Z,0.1
2022-12-03T19:40:33.826Z,0.1
2022-12-03T19:42:37.639Z,0.1
2022-12-03T19:44:44.546Z,0.1
2022-12-03T19:46:48.353Z,0.1
2022-12-03T19:48:52.174Z,0.1
2022-12-03T19:51:13.577Z,0.1
2022-12-03T19:52:59.671Z,0.1
2022-12-03T19:55:03.462Z,0.1
2022-12-03T19:57:07.259Z,0
2022-12-03T20:01:18.127Z,0
2022-12-03T20:03:21.843Z,0
2022-12-03T20:07:29.507Z,0
2022-12-03T20:13:43.950Z,0
2022-12-03T20:15:47.742Z,0
2022-12-03T20:17:51.529Z,0
2022-12-03T20:18:55.024Z,0
2022-12-03T20:20:58.803Z,0
2022-12-03T20:23:02.580Z,0
2022-12-03T20:25:06.359Z,0
2022-12-03T20:27:14.721Z,0
2022-12-03T20:29:17.166Z,0
2022-12-03T20:33:24.721Z,0
2022-12-03T20:35:28.509Z,0
2022-12-03T20:37:32.318Z,-0.1
2022-12-03T20:41:42.913Z,-0.1
2022-12-03T20:43:46.711Z,0
2022-12-03T20:45:50.531Z,0
2022-12-03T20:47:54.270Z,-0.1
2022-12-03T20:49:58.227Z,-0.1
2022-12-03T20:52:04.512Z,-0.1
2022-12-03T20:56:12.549Z,-0.1
2022-12-03T20:58:16.327Z,-0.1
2022-12-03T21:00:20.123Z,-0.1
2022-12-03T21:02:23.868Z,-0.1
2022-12-03T21:04:27.594Z,-0.1
2022-12-03T21:06:31.360Z,-0.1
2022-12-03T21:10:42.098Z,-0.1
2022-12-03T21:14:49.643Z,-0.1
2022-12-03T21:17:56.928Z,-0.1
2022-12-03T21:20:00.670Z,-0.1
2022-12-03T21:24:11.358Z,-0.2
2022-12-03T21:26:15.172Z,-0.2
2022-12-03T21:28:18.960Z,-0.2
2022-12-03T21:30:22.722Z,-0.2
2022-12-03T21:32:26.387Z,-0.2
2022-12-03T21:34:34.332Z,-0.2
2022-12-03T21:36:33.939Z,-0.2
2022-12-03T21:38:40.866Z,-0.2
2022-12-03T21:40:44.626Z,-0.2
2022-12-03T21:42:48.474Z,-0.2
2022-12-03T21:44:52.149Z,-0.2
2022-12-03T21:47:11.089Z,-0.1
2022-12-03T21:48:59.601Z,-0.1
2022-12-03T21:51:03.372Z,-0.1
2022-12-03T21:53:10.211Z,-0.1
2022-12-03T21:55:13.853Z,-0.1
2022-12-03T21:57:17.638Z,-0.1
2022-12-03T21:59:21.427Z,-0.1
2022-12-03T22:01:25.275Z,-0.1
2022-12-03T22:03:28.940Z,-0.1
2022-12-03T22:05:32.742Z,-0.1
2022-12-03T22:07:39.774Z,-0.1
2022-12-03T22:09:43.394Z,-0.1
2022-12-03T22:11:47.181Z,-0.1
2022-12-03T22:14:05.680Z,0
2022-12-03T22:16:09.542Z,0
2022-12-03T22:18:13.292Z,0
2022-12-03T22:20:20.214Z,0
2022-12-03T22:22:23.888Z,0
2022-12-03T22:24:27.669Z,0
2022-12-03T22:26:31.465Z,0
2022-12-03T22:30:33.179Z,0
2022-12-03T22:32:36.880Z,0
2022-12-03T22:34:43.778Z,0.1
2022-12-03T22:36:47.499Z,0.1
2022-12-03T22:38:51.299Z,0
2022-12-03T22:40:55.089Z,0
2022-12-03T22:42:58.865Z,0.1
2022-12-03T22:45:02.661Z,0
2022-12-03T22:47:06.450Z,0
2022-12-03T22:49:13.389Z,0
2022-12-03T22:51:17.056Z,0
2022-12-03T22:53:20.855Z,0
2022-12-03T22:55:24.642Z,0
2022-12-03T22:57:28.435Z,0
2022-12-03T22:59:32.304Z,0
2022-12-03T23:01:35.994Z,0
2022-12-03T23:03:43.075Z,0.1
2022-12-03T23:05:46.710Z,0.1
2022-12-03T23:07:50.477Z,0
2022-12-03T23:19:15.831Z,0
2022-12-03T23:23:23.419Z,0
2022-12-03T23:25:27.211Z,0.1
2022-12-03T23:29:34.812Z,0.1
2022-12-03T23:31:41.795Z,0.1
2022-12-03T23:33:45.523Z,0.1
2022-12-03T23:35:49.306Z,0
2022-12-03T23:37:53.095Z,0
2022-12-03T23:39:57.112Z,0
2022-12-03T23:42:00.680Z,0.1
2022-12-03T23:44:04.469Z,0
2022-12-03T23:46:12.996Z,0.1
2022-12-03T23:50:20.470Z,0.1
2022-12-03T23:52:24.219Z,0.1
2022-12-03T23:54:28.022Z,0.1
2022-12-03T23:56:31.853Z,0.1
2022-12-03T23:58:35.633Z,0.1
